sensor_id;sensor_type;location;lat;lon;timestamp;P1;durP1;ratioP1;P2;durP2;ratioP2
20154;SDS011;10238;49.556;10.956;2023-03-21T00:00:24;4.97;;;3.63;;
20154;SDS011;10238;49.556;10.956;2023-03-21T00:03:12;5.30;;;4.28;;
20154;SDS011;10238;49.556;10.956;2023-03-21T00:06:03;3.58;;;3.20;;
20154;SDS011;10238;49.556;10.956;2023-03-21T00:08:53;4.63;;;3.90;;
20154;SDS011;10238;49.556;10.956;2023-03-21T00:11:40;7.40;;;3.72;;
20154;SDS011;10238;49.556;10.956;2023-03-21T00:14:31;4.70;;;3.50;;
20154;SDS011;10238;49.556;10.956;2023-03-21T00:17:19;4.10;;;3.60;;
20154;SDS011;10238;49.556;10.956;2023-03-21T00:20:08;4.72;;;3.42;;
20154;SDS011;10238;49.556;10.956;2023-03-21T00:22:59;4.32;;;3.78;;
20154;SDS011;10238;49.556;10.956;2023-03-21T00:25:49;4.75;;;3.50;;
20154;SDS011;10238;49.556;10.956;2023-03-21T00:28:37;4.65;;;3.50;;
20154;SDS011;10238;49.556;10.956;2023-03-21T00:31:27;4.95;;;3.30;;
20154;SDS011;10238;49.556;10.956;2023-03-21T00:34:15;7.57;;;3.50;;
20154;SDS011;10238;49.556;10.956;2023-03-21T00:37:21;4.13;;;3.40;;
20154;SDS011;10238;49.556;10.956;2023-03-21T00:40:09;5.57;;;3.25;;
20154;SDS011;10238;49.556;10.956;2023-03-21T00:43:15;4.97;;;3.40;;
20154;SDS011;10238;49.556;10.956;2023-03-21T00:46:07;3.33;;;3.03;;
20154;SDS011;10238;49.556;10.956;2023-03-21T00:48:55;3.63;;;2.92;;
20154;SDS011;10238;49.556;10.956;2023-03-21T00:51:43;3.85;;;3.20;;
20154;SDS011;10238;49.556;10.956;2023-03-21T00:54:36;4.45;;;3.20;;
20154;SDS011;10238;49.556;10.956;2023-03-21T00:57:24;3.70;;;3.40;;
20154;SDS011;10238;49.556;10.956;2023-03-21T01:00:25;3.50;;;3.03;;
20154;SDS011;10238;49.556;10.956;2023-03-21T01:03:14;3.25;;;2.95;;
20154;SDS011;10238;49.556;10.956;2023-03-21T01:06:10;5.50;;;2.80;;
20154;SDS011;10238;49.556;10.956;2023-03-21T01:08:58;4.40;;;3.17;;
20154;SDS011;10238;49.556;10.956;2023-03-21T01:11:46;3.58;;;2.90;;
20154;SDS011;10238;49.556;10.956;2023-03-21T01:14:35;3.40;;;2.65;;
20154;SDS011;10238;49.556;10.956;2023-03-21T01:17:24;6.53;;;3.28;;
20154;SDS011;10238;49.556;10.956;2023-03-21T01:20:12;5.32;;;3.83;;
20154;SDS011;10238;49.556;10.956;2023-03-21T01:23:00;5.22;;;4.72;;
20154;SDS011;10238;49.556;10.956;2023-03-21T01:25:49;5.82;;;5.53;;
20154;SDS011;10238;49.556;10.956;2023-03-21T01:28:41;7.35;;;6.85;;
20154;SDS011;10238;49.556;10.956;2023-03-21T01:31:31;6.45;;;6.05;;
20154;SDS011;10238;49.556;10.956;2023-03-21T01:34:20;5.68;;;5.28;;
20154;SDS011;10238;49.556;10.956;2023-03-21T01:37:13;4.32;;;3.92;;
20154;SDS011;10238;49.556;10.956;2023-03-21T01:40:02;4.90;;;3.78;;
20154;SDS011;10238;49.556;10.956;2023-03-21T01:42:51;3.25;;;2.88;;
20154;SDS011;10238;49.556;10.956;2023-03-21T01:49:14;4.00;;;2.90;;
20154;SDS011;10238;49.556;10.956;2023-03-21T01:52:08;4.55;;;3.03;;
20154;SDS011;10238;49.556;10.956;2023-03-21T01:55:11;3.42;;;3.13;;
20154;SDS011;10238;49.556;10.956;2023-03-21T01:58:00;2.90;;;2.70;;
20154;SDS011;10238;49.556;10.956;2023-03-21T02:00:51;3.10;;;2.80;;
20154;SDS011;10238;49.556;10.956;2023-03-21T02:03:42;4.38;;;2.92;;
20154;SDS011;10238;49.556;10.956;2023-03-21T02:06:37;2.75;;;2.53;;
20154;SDS011;10238;49.556;10.956;2023-03-21T02:09:31;3.13;;;2.85;;
20154;SDS011;10238;49.556;10.956;2023-03-21T02:15:10;3.03;;;2.83;;
20154;SDS011;10238;49.556;10.956;2023-03-21T02:17:59;3.88;;;2.50;;
20154;SDS011;10238;49.556;10.956;2023-03-21T02:20:59;3.15;;;2.85;;
20154;SDS011;10238;49.556;10.956;2023-03-21T02:27:36;4.22;;;2.72;;
20154;SDS011;10238;49.556;10.956;2023-03-21T02:30:34;5.18;;;2.42;;
20154;SDS011;10238;49.556;10.956;2023-03-21T02:33:40;2.80;;;2.42;;
20154;SDS011;10238;49.556;10.956;2023-03-21T02:36:50;2.88;;;2.35;;
20154;SDS011;10238;49.556;10.956;2023-03-21T02:39:50;2.88;;;2.50;;
20154;SDS011;10238;49.556;10.956;2023-03-21T02:42:43;2.65;;;2.10;;
20154;SDS011;10238;49.556;10.956;2023-03-21T02:45:46;6.35;;;2.97;;
20154;SDS011;10238;49.556;10.956;2023-03-21T02:51:35;2.63;;;2.33;;
20154;SDS011;10238;49.556;10.956;2023-03-21T02:54:27;5.97;;;3.45;;
20154;SDS011;10238;49.556;10.956;2023-03-21T02:57:32;3.85;;;2.17;;
20154;SDS011;10238;49.556;10.956;2023-03-21T03:00:29;3.70;;;2.47;;
20154;SDS011;10238;49.556;10.956;2023-03-21T03:03:19;3.97;;;2.33;;
20154;SDS011;10238;49.556;10.956;2023-03-21T03:06:19;5.57;;;3.38;;
20154;SDS011;10238;49.556;10.956;2023-03-21T03:09:14;4.45;;;3.33;;
20154;SDS011;10238;49.556;10.956;2023-03-21T03:12:15;2.85;;;2.47;;
20154;SDS011;10238;49.556;10.956;2023-03-21T03:15:12;6.97;;;3.47;;
20154;SDS011;10238;49.556;10.956;2023-03-21T03:18:15;3.15;;;2.25;;
20154;SDS011;10238;49.556;10.956;2023-03-21T03:21:07;2.65;;;2.45;;
20154;SDS011;10238;49.556;10.956;2023-03-21T03:24:03;3.13;;;2.30;;
20154;SDS011;10238;49.556;10.956;2023-03-21T03:26:56;2.53;;;2.33;;
20154;SDS011;10238;49.556;10.956;2023-03-21T03:29:51;6.72;;;2.88;;
20154;SDS011;10238;49.556;10.956;2023-03-21T03:32:41;5.32;;;3.58;;
20154;SDS011;10238;49.556;10.956;2023-03-21T03:35:34;3.38;;;2.92;;
20154;SDS011;10238;49.556;10.956;2023-03-21T03:38:22;4.60;;;2.47;;
20154;SDS011;10238;49.556;10.956;2023-03-21T03:41:13;3.28;;;2.92;;
20154;SDS011;10238;49.556;10.956;2023-03-21T03:44:07;8.80;;;2.90;;
20154;SDS011;10238;49.556;10.956;2023-03-21T03:46:57;3.80;;;3.38;;
20154;SDS011;10238;49.556;10.956;2023-03-21T03:49:49;5.60;;;2.53;;
20154;SDS011;10238;49.556;10.956;2023-03-21T03:52:43;4.60;;;3.30;;
20154;SDS011;10238;49.556;10.956;2023-03-21T03:55:42;3.10;;;2.38;;
20154;SDS011;10238;49.556;10.956;2023-03-21T03:58:30;2.88;;;2.30;;
20154;SDS011;10238;49.556;10.956;2023-03-21T04:01:30;5.05;;;2.78;;
20154;SDS011;10238;49.556;10.956;2023-03-21T04:04:20;2.30;;;2.10;;
20154;SDS011;10238;49.556;10.956;2023-03-21T04:07:13;2.63;;;2.42;;
20154;SDS011;10238;49.556;10.956;2023-03-21T04:10:02;3.70;;;2.47;;
20154;SDS011;10238;49.556;10.956;2023-03-21T04:12:50;3.30;;;2.10;;
20154;SDS011;10238;49.556;10.956;2023-03-21T04:15:38;2.72;;;2.10;;
20154;SDS011;10238;49.556;10.956;2023-03-21T04:18:26;3.78;;;3.33;;
20154;SDS011;10238;49.556;10.956;2023-03-21T04:21:16;2.80;;;2.55;;
20154;SDS011;10238;49.556;10.956;2023-03-21T04:24:04;4.65;;;3.00;;
20154;SDS011;10238;49.556;10.956;2023-03-21T04:26:52;3.05;;;2.45;;
20154;SDS011;10238;49.556;10.956;2023-03-21T04:29:40;3.38;;;2.58;;
20154;SDS011;10238;49.556;10.956;2023-03-21T04:32:28;6.43;;;3.30;;
20154;SDS011;10238;49.556;10.956;2023-03-21T04:35:18;2.50;;;2.30;;
20154;SDS011;10238;49.556;10.956;2023-03-21T04:38:08;3.38;;;2.33;;
20154;SDS011;10238;49.556;10.956;2023-03-21T04:40:56;3.53;;;2.25;;
20154;SDS011;10238;49.556;10.956;2023-03-21T04:43:45;2.47;;;2.28;;
20154;SDS011;10238;49.556;10.956;2023-03-21T04:46:33;5.03;;;2.33;;
20154;SDS011;10238;49.556;10.956;2023-03-21T04:49:21;2.50;;;2.30;;
20154;SDS011;10238;49.556;10.956;2023-03-21T04:52:09;3.13;;;2.72;;
20154;SDS011;10238;49.556;10.956;2023-03-21T04:54:58;3.90;;;2.78;;
20154;SDS011;10238;49.556;10.956;2023-03-21T04:57:48;3.17;;;2.20;;
20154;SDS011;10238;49.556;10.956;2023-03-21T05:00:36;4.38;;;3.08;;
20154;SDS011;10238;49.556;10.956;2023-03-21T05:03:25;4.10;;;3.08;;
20154;SDS011;10238;49.556;10.956;2023-03-21T05:06:19;2.97;;;2.67;;
20154;SDS011;10238;49.556;10.956;2023-03-21T05:09:07;3.45;;;2.60;;
20154;SDS011;10238;49.556;10.956;2023-03-21T05:11:56;3.33;;;2.83;;
20154;SDS011;10238;49.556;10.956;2023-03-21T05:14:44;4.55;;;2.83;;
20154;SDS011;10238;49.556;10.956;2023-03-21T05:17:32;4.78;;;3.67;;
20154;SDS011;10238;49.556;10.956;2023-03-21T05:20:21;4.20;;;2.95;;
20154;SDS011;10238;49.556;10.956;2023-03-21T05:23:10;3.83;;;2.85;;
20154;SDS011;10238;49.556;10.956;2023-03-21T05:26:04;3.15;;;2.78;;
20154;SDS011;10238;49.556;10.956;2023-03-21T05:28:56;3.75;;;3.00;;
20154;SDS011;10238;49.556;10.956;2023-03-21T05:31:45;2.92;;;2.63;;
20154;SDS011;10238;49.556;10.956;2023-03-21T05:34:33;7.68;;;3.80;;
20154;SDS011;10238;49.556;10.956;2023-03-21T05:37:21;3.70;;;3.30;;
20154;SDS011;10238;49.556;10.956;2023-03-21T05:40:10;3.70;;;2.63;;
20154;SDS011;10238;49.556;10.956;2023-03-21T05:42:58;6.13;;;3.42;;
20154;SDS011;10238;49.556;10.956;2023-03-21T05:45:47;5.32;;;4.07;;
20154;SDS011;10238;49.556;10.956;2023-03-21T05:48:35;6.80;;;3.60;;
20154;SDS011;10238;49.556;10.956;2023-03-21T05:51:23;5.20;;;3.70;;
20154;SDS011;10238;49.556;10.956;2023-03-21T05:54:11;6.63;;;3.22;;
20154;SDS011;10238;49.556;10.956;2023-03-21T05:57:01;5.10;;;3.22;;
20154;SDS011;10238;49.556;10.956;2023-03-21T05:59:49;4.20;;;3.20;;
20154;SDS011;10238;49.556;10.956;2023-03-21T06:02:39;3.55;;;2.63;;
20154;SDS011;10238;49.556;10.956;2023-03-21T06:05:26;5.38;;;3.65;;
20154;SDS011;10238;49.556;10.956;2023-03-21T06:08:16;6.05;;;3.90;;
20154;SDS011;10238;49.556;10.956;2023-03-21T06:11:16;8.45;;;4.55;;
20154;SDS011;10238;49.556;10.956;2023-03-21T06:14:08;4.38;;;3.75;;
20154;SDS011;10238;49.556;10.956;2023-03-21T06:16:56;4.50;;;3.42;;
20154;SDS011;10238;49.556;10.956;2023-03-21T06:19:46;4.05;;;3.60;;
20154;SDS011;10238;49.556;10.956;2023-03-21T06:22:34;5.38;;;3.20;;
20154;SDS011;10238;49.556;10.956;2023-03-21T06:25:22;5.38;;;3.75;;
20154;SDS011;10238;49.556;10.956;2023-03-21T06:28:10;4.28;;;3.08;;
20154;SDS011;10238;49.556;10.956;2023-03-21T06:30:58;5.13;;;3.63;;
20154;SDS011;10238;49.556;10.956;2023-03-21T06:33:46;3.90;;;3.00;;
20154;SDS011;10238;49.556;10.956;2023-03-21T06:36:36;7.60;;;3.83;;
20154;SDS011;10238;49.556;10.956;2023-03-21T06:39:24;5.65;;;3.97;;
20154;SDS011;10238;49.556;10.956;2023-03-21T06:42:12;6.00;;;3.50;;
20154;SDS011;10238;49.556;10.956;2023-03-21T06:45:00;3.65;;;3.00;;
20154;SDS011;10238;49.556;10.956;2023-03-21T06:47:48;6.93;;;4.38;;
20154;SDS011;10238;49.556;10.956;2023-03-21T06:50:36;8.15;;;4.47;;
20154;SDS011;10238;49.556;10.956;2023-03-21T06:53:26;7.90;;;4.63;;
20154;SDS011;10238;49.556;10.956;2023-03-21T06:56:14;7.47;;;4.70;;
20154;SDS011;10238;49.556;10.956;2023-03-21T06:59:02;5.90;;;3.83;;
20154;SDS011;10238;49.556;10.956;2023-03-21T07:01:50;6.95;;;4.05;;
20154;SDS011;10238;49.556;10.956;2023-03-21T07:04:38;6.85;;;3.90;;
20154;SDS011;10238;49.556;10.956;2023-03-21T07:07:27;8.23;;;5.28;;
20154;SDS011;10238;49.556;10.956;2023-03-21T07:10:17;6.00;;;4.25;;
20154;SDS011;10238;49.556;10.956;2023-03-21T07:13:05;5.93;;;3.50;;
20154;SDS011;10238;49.556;10.956;2023-03-21T07:15:53;2.92;;;2.70;;
20154;SDS011;10238;49.556;10.956;2023-03-21T07:18:41;4.72;;;3.50;;
20154;SDS011;10238;49.556;10.956;2023-03-21T07:21:29;4.93;;;4.13;;
20154;SDS011;10238;49.556;10.956;2023-03-21T07:24:17;5.38;;;3.92;;
20154;SDS011;10238;49.556;10.956;2023-03-21T07:27:07;7.88;;;4.28;;
20154;SDS011;10238;49.556;10.956;2023-03-21T07:29:54;8.25;;;4.65;;
20154;SDS011;10238;49.556;10.956;2023-03-21T07:32:42;7.47;;;4.32;;
20154;SDS011;10238;49.556;10.956;2023-03-21T07:35:32;6.15;;;4.15;;
20154;SDS011;10238;49.556;10.956;2023-03-21T07:38:22;8.07;;;4.15;;
20154;SDS011;10238;49.556;10.956;2023-03-21T07:41:11;8.15;;;3.97;;
20154;SDS011;10238;49.556;10.956;2023-03-21T07:44:00;5.53;;;4.40;;
20154;SDS011;10238;49.556;10.956;2023-03-21T07:46:48;9.88;;;5.65;;
20154;SDS011;10238;49.556;10.956;2023-03-21T07:49:36;6.22;;;3.92;;
20154;SDS011;10238;49.556;10.956;2023-03-21T07:52:24;7.65;;;4.88;;
20154;SDS011;10238;49.556;10.956;2023-03-21T07:55:13;8.50;;;5.35;;
20154;SDS011;10238;49.556;10.956;2023-03-21T07:58:03;4.80;;;3.97;;
20154;SDS011;10238;49.556;10.956;2023-03-21T08:00:52;5.07;;;4.60;;
20154;SDS011;10238;49.556;10.956;2023-03-21T08:03:41;5.43;;;4.30;;
20154;SDS011;10238;49.556;10.956;2023-03-21T08:06:29;6.78;;;5.47;;
20154;SDS011;10238;49.556;10.956;2023-03-21T08:09:17;6.20;;;4.93;;
20154;SDS011;10238;49.556;10.956;2023-03-21T08:12:05;6.97;;;5.60;;
20154;SDS011;10238;49.556;10.956;2023-03-21T08:14:54;6.88;;;4.38;;
20154;SDS011;10238;49.556;10.956;2023-03-21T08:17:46;7.93;;;4.85;;
20154;SDS011;10238;49.556;10.956;2023-03-21T08:20:34;7.38;;;5.00;;
20154;SDS011;10238;49.556;10.956;2023-03-21T08:23:22;7.32;;;4.00;;
20154;SDS011;10238;49.556;10.956;2023-03-21T08:26:10;8.45;;;5.65;;
20154;SDS011;10238;49.556;10.956;2023-03-21T08:29:03;7.22;;;4.45;;
20154;SDS011;10238;49.556;10.956;2023-03-21T08:31:51;6.93;;;3.55;;
20154;SDS011;10238;49.556;10.956;2023-03-21T08:34:43;11.30;;;5.80;;
20154;SDS011;10238;49.556;10.956;2023-03-21T08:37:31;6.90;;;5.13;;
20154;SDS011;10238;49.556;10.956;2023-03-21T08:40:18;10.90;;;5.93;;
20154;SDS011;10238;49.556;10.956;2023-03-21T08:43:06;7.47;;;5.10;;
20154;SDS011;10238;49.556;10.956;2023-03-21T08:45:54;7.82;;;5.03;;
20154;SDS011;10238;49.556;10.956;2023-03-21T08:48:42;10.70;;;5.03;;
20154;SDS011;10238;49.556;10.956;2023-03-21T08:51:32;10.50;;;5.65;;
20154;SDS011;10238;49.556;10.956;2023-03-21T08:54:22;11.25;;;4.80;;
20154;SDS011;10238;49.556;10.956;2023-03-21T08:57:10;7.18;;;4.78;;
20154;SDS011;10238;49.556;10.956;2023-03-21T08:59:58;6.97;;;4.93;;
20154;SDS011;10238;49.556;10.956;2023-03-21T09:02:46;7.45;;;4.28;;
20154;SDS011;10238;49.556;10.956;2023-03-21T09:05:36;5.90;;;4.63;;
20154;SDS011;10238;49.556;10.956;2023-03-21T09:08:26;9.20;;;4.97;;
20154;SDS011;10238;49.556;10.956;2023-03-21T09:11:14;8.65;;;5.70;;
20154;SDS011;10238;49.556;10.956;2023-03-21T09:14:02;5.93;;;3.92;;
20154;SDS011;10238;49.556;10.956;2023-03-21T09:16:50;7.93;;;5.45;;
20154;SDS011;10238;49.556;10.956;2023-03-21T09:19:38;7.28;;;5.10;;
20154;SDS011;10238;49.556;10.956;2023-03-21T09:22:27;9.88;;;5.32;;
20154;SDS011;10238;49.556;10.956;2023-03-21T09:25:16;8.05;;;4.88;;
20154;SDS011;10238;49.556;10.956;2023-03-21T09:28:06;7.35;;;5.03;;
20154;SDS011;10238;49.556;10.956;2023-03-21T09:30:54;5.57;;;4.43;;
20154;SDS011;10238;49.556;10.956;2023-03-21T09:33:47;6.15;;;3.28;;
20154;SDS011;10238;49.556;10.956;2023-03-21T09:36:35;4.68;;;2.75;;
20154;SDS011;10238;49.556;10.956;2023-03-21T09:39:26;6.50;;;3.60;;
20154;SDS011;10238;49.556;10.956;2023-03-21T09:42:18;5.13;;;2.83;;
20154;SDS011;10238;49.556;10.956;2023-03-21T09:45:17;4.05;;;2.13;;
20154;SDS011;10238;49.556;10.956;2023-03-21T09:48:11;4.20;;;3.42;;
20154;SDS011;10238;49.556;10.956;2023-03-21T09:51:15;4.30;;;2.83;;
20154;SDS011;10238;49.556;10.956;2023-03-21T09:54:04;3.15;;;2.80;;
20154;SDS011;10238;49.556;10.956;2023-03-21T09:56:58;4.55;;;2.80;;
20154;SDS011;10238;49.556;10.956;2023-03-21T09:59:52;4.80;;;3.20;;
20154;SDS011;10238;49.556;10.956;2023-03-21T10:02:43;5.70;;;3.30;;
20154;SDS011;10238;49.556;10.956;2023-03-21T10:05:32;4.93;;;2.90;;
20154;SDS011;10238;49.556;10.956;2023-03-21T10:08:24;5.68;;;3.20;;
20154;SDS011;10238;49.556;10.956;2023-03-21T10:11:19;6.20;;;3.58;;
20154;SDS011;10238;49.556;10.956;2023-03-21T10:14:13;4.15;;;2.60;;
20154;SDS011;10238;49.556;10.956;2023-03-21T10:17:08;5.22;;;3.17;;
20154;SDS011;10238;49.556;10.956;2023-03-21T10:20:11;3.72;;;3.28;;
20154;SDS011;10238;49.556;10.956;2023-03-21T10:23:03;4.32;;;3.97;;
20154;SDS011;10238;49.556;10.956;2023-03-21T10:25:53;4.03;;;3.70;;
20154;SDS011;10238;49.556;10.956;2023-03-21T10:28:44;6.28;;;5.03;;
20154;SDS011;10238;49.556;10.956;2023-03-21T10:31:38;6.18;;;5.18;;
20154;SDS011;10238;49.556;10.956;2023-03-21T10:34:30;4.53;;;3.30;;
20154;SDS011;10238;49.556;10.956;2023-03-21T10:37:22;5.82;;;3.53;;
20154;SDS011;10238;49.556;10.956;2023-03-21T10:40:13;7.55;;;4.35;;
20154;SDS011;10238;49.556;10.956;2023-03-21T10:43:15;4.97;;;4.43;;
20154;SDS011;10238;49.556;10.956;2023-03-21T10:46:07;5.85;;;5.45;;
20154;SDS011;10238;49.556;10.956;2023-03-21T10:48:58;5.55;;;4.30;;
20154;SDS011;10238;49.556;10.956;2023-03-21T10:51:48;5.72;;;3.72;;
20154;SDS011;10238;49.556;10.956;2023-03-21T10:54:38;4.38;;;4.07;;
20154;SDS011;10238;49.556;10.956;2023-03-21T10:57:27;4.60;;;4.13;;
20154;SDS011;10238;49.556;10.956;2023-03-21T11:00:17;11.95;;;11.15;;
20154;SDS011;10238;49.556;10.956;2023-03-21T11:06:06;6.05;;;3.78;;
20154;SDS011;10238;49.556;10.956;2023-03-21T11:09:03;9.30;;;4.68;;
20154;SDS011;10238;49.556;10.956;2023-03-21T11:12:00;6.07;;;4.55;;
20154;SDS011;10238;49.556;10.956;2023-03-21T11:14:51;4.18;;;2.80;;
20154;SDS011;10238;49.556;10.956;2023-03-21T11:17:39;3.15;;;2.53;;
20154;SDS011;10238;49.556;10.956;2023-03-21T11:20:28;3.17;;;1.95;;
20154;SDS011;10238;49.556;10.956;2023-03-21T11:23:18;3.40;;;2.08;;
20154;SDS011;10238;49.556;10.956;2023-03-21T11:26:09;3.10;;;2.65;;
20154;SDS011;10238;49.556;10.956;2023-03-21T11:29:08;4.53;;;4.13;;
20154;SDS011;10238;49.556;10.956;2023-03-21T11:32:09;4.90;;;4.47;;
20154;SDS011;10238;49.556;10.956;2023-03-21T11:35:00;4.38;;;3.40;;
20154;SDS011;10238;49.556;10.956;2023-03-21T11:37:51;3.92;;;3.70;;
20154;SDS011;10238;49.556;10.956;2023-03-21T11:40:40;5.53;;;5.20;;
20154;SDS011;10238;49.556;10.956;2023-03-21T11:43:41;6.53;;;5.65;;
20154;SDS011;10238;49.556;10.956;2023-03-21T11:46:38;3.08;;;2.17;;
20154;SDS011;10238;49.556;10.956;2023-03-21T11:49:26;9.20;;;5.70;;
20154;SDS011;10238;49.556;10.956;2023-03-21T11:52:18;5.85;;;5.45;;
20154;SDS011;10238;49.556;10.956;2023-03-21T11:55:20;5.75;;;5.35;;
20154;SDS011;10238;49.556;10.956;2023-03-21T11:58:30;7.75;;;7.25;;
20154;SDS011;10238;49.556;10.956;2023-03-21T12:01:27;8.80;;;8.23;;
20154;SDS011;10238;49.556;10.956;2023-03-21T12:04:33;7.53;;;7.03;;
20154;SDS011;10238;49.556;10.956;2023-03-21T12:07:30;6.38;;;5.80;;
20154;SDS011;10238;49.556;10.956;2023-03-21T12:10:35;5.05;;;3.38;;
20154;SDS011;10238;49.556;10.956;2023-03-21T12:13:34;2.70;;;2.47;;
20154;SDS011;10238;49.556;10.956;2023-03-21T12:16:35;6.05;;;4.85;;
20154;SDS011;10238;49.556;10.956;2023-03-21T12:19:42;4.57;;;4.20;;
20154;SDS011;10238;49.556;10.956;2023-03-21T12:22:56;3.45;;;2.20;;
20154;SDS011;10238;49.556;10.956;2023-03-21T12:25:55;3.28;;;2.00;;
20154;SDS011;10238;49.556;10.956;2023-03-21T12:28:54;4.88;;;4.38;;
20154;SDS011;10238;49.556;10.956;2023-03-21T12:35:01;4.57;;;4.18;;
20154;SDS011;10238;49.556;10.956;2023-03-21T12:38:05;4.63;;;3.88;;
20154;SDS011;10238;49.556;10.956;2023-03-21T12:41:04;4.60;;;3.65;;
20154;SDS011;10238;49.556;10.956;2023-03-21T12:44:07;3.78;;;3.58;;
20154;SDS011;10238;49.556;10.956;2023-03-21T12:47:00;4.33;;;4.00;;
20154;SDS011;10238;49.556;10.956;2023-03-21T12:49:54;4.60;;;3.95;;
20154;SDS011;10238;49.556;10.956;2023-03-21T12:52:48;4.80;;;4.50;;
20154;SDS011;10238;49.556;10.956;2023-03-21T12:55:40;6.43;;;5.93;;
20154;SDS011;10238;49.556;10.956;2023-03-21T12:58:29;5.18;;;3.35;;
20154;SDS011;10238;49.556;10.956;2023-03-21T13:01:22;4.85;;;4.57;;
20154;SDS011;10238;49.556;10.956;2023-03-21T13:04:25;7.22;;;6.80;;
20154;SDS011;10238;49.556;10.956;2023-03-21T13:07:22;5.43;;;5.13;;
20154;SDS011;10238;49.556;10.956;2023-03-21T13:10:12;5.95;;;5.65;;
20154;SDS011;10238;49.556;10.956;2023-03-21T13:13:03;4.53;;;4.22;;
20154;SDS011;10238;49.556;10.956;2023-03-21T13:16:01;6.78;;;6.18;;
20154;SDS011;10238;49.556;10.956;2023-03-21T13:18:55;3.42;;;3.22;;
20154;SDS011;10238;49.556;10.956;2023-03-21T13:21:51;4.15;;;3.95;;
20154;SDS011;10238;49.556;10.956;2023-03-21T13:24:47;7.53;;;7.03;;
20154;SDS011;10238;49.556;10.956;2023-03-21T13:27:36;5.13;;;4.82;;
20154;SDS011;10238;49.556;10.956;2023-03-21T13:30:26;7.00;;;6.60;;
20154;SDS011;10238;49.556;10.956;2023-03-21T13:33:15;5.07;;;4.78;;
20154;SDS011;10238;49.556;10.956;2023-03-21T13:36:11;2.70;;;2.50;;
20154;SDS011;10238;49.556;10.956;2023-03-21T13:39:15;5.03;;;4.72;;
20154;SDS011;10238;49.556;10.956;2023-03-21T13:42:05;3.30;;;3.00;;
20154;SDS011;10238;49.556;10.956;2023-03-21T13:45:08;3.20;;;3.00;;
20154;SDS011;10238;49.556;10.956;2023-03-21T13:47:58;2.83;;;2.63;;
20154;SDS011;10238;49.556;10.956;2023-03-21T13:50:50;5.88;;;5.50;;
20154;SDS011;10238;49.556;10.956;2023-03-21T13:53:39;7.05;;;6.50;;
20154;SDS011;10238;49.556;10.956;2023-03-21T13:56:29;4.63;;;4.38;;
20154;SDS011;10238;49.556;10.956;2023-03-21T13:59:40;5.28;;;4.97;;
20154;SDS011;10238;49.556;10.956;2023-03-21T14:02:31;3.95;;;3.67;;
20154;SDS011;10238;49.556;10.956;2023-03-21T14:05:21;5.18;;;2.85;;
20154;SDS011;10238;49.556;10.956;2023-03-21T14:08:14;3.92;;;3.65;;
20154;SDS011;10238;49.556;10.956;2023-03-21T14:11:19;3.97;;;3.58;;
20154;SDS011;10238;49.556;10.956;2023-03-21T14:14:09;2.65;;;2.47;;
20154;SDS011;10238;49.556;10.956;2023-03-21T14:16:58;2.95;;;2.75;;
20154;SDS011;10238;49.556;10.956;2023-03-21T14:19:46;3.60;;;3.40;;
20154;SDS011;10238;49.556;10.956;2023-03-21T14:25:31;3.40;;;3.20;;
20154;SDS011;10238;49.556;10.956;2023-03-21T14:28:31;3.78;;;2.92;;
20154;SDS011;10238;49.556;10.956;2023-03-21T14:31:22;3.53;;;3.33;;
20154;SDS011;10238;49.556;10.956;2023-03-21T14:34:12;3.20;;;3.00;;
20154;SDS011;10238;49.556;10.956;2023-03-21T14:37:02;3.45;;;3.25;;
20154;SDS011;10238;49.556;10.956;2023-03-21T14:39:56;2.75;;;2.55;;
20154;SDS011;10238;49.556;10.956;2023-03-21T14:42:46;2.55;;;2.35;;
20154;SDS011;10238;49.556;10.956;2023-03-21T14:45:35;2.53;;;1.80;;
20154;SDS011;10238;49.556;10.956;2023-03-21T14:48:29;2.95;;;2.60;;
20154;SDS011;10238;49.556;10.956;2023-03-21T14:51:18;1.67;;;1.58;;
20154;SDS011;10238;49.556;10.956;2023-03-21T14:54:08;2.10;;;1.65;;
20154;SDS011;10238;49.556;10.956;2023-03-21T14:57:02;2.58;;;2.35;;
20154;SDS011;10238;49.556;10.956;2023-03-21T14:59:54;3.70;;;1.70;;
20154;SDS011;10238;49.556;10.956;2023-03-21T15:02:45;2.65;;;2.45;;
20154;SDS011;10238;49.556;10.956;2023-03-21T15:05:35;4.10;;;2.28;;
20154;SDS011;10238;49.556;10.956;2023-03-21T15:08:25;2.80;;;2.60;;
20154;SDS011;10238;49.556;10.956;2023-03-21T15:11:13;3.38;;;2.60;;
20154;SDS011;10238;49.556;10.956;2023-03-21T15:14:03;2.20;;;2.10;;
20154;SDS011;10238;49.556;10.956;2023-03-21T15:16:53;2.08;;;1.40;;
20154;SDS011;10238;49.556;10.956;2023-03-21T15:19:42;1.67;;;1.58;;
20154;SDS011;10238;49.556;10.956;2023-03-21T15:22:32;2.53;;;2.40;;
20154;SDS011;10238;49.556;10.956;2023-03-21T15:25:25;4.28;;;3.28;;
20154;SDS011;10238;49.556;10.956;2023-03-21T15:28:16;2.80;;;2.50;;
20154;SDS011;10238;49.556;10.956;2023-03-21T15:31:03;2.60;;;2.40;;
20154;SDS011;10238;49.556;10.956;2023-03-21T15:34:03;3.78;;;3.30;;
20154;SDS011;10238;49.556;10.956;2023-03-21T15:36:54;3.25;;;2.90;;
20154;SDS011;10238;49.556;10.956;2023-03-21T15:39:45;3.17;;;2.72;;
20154;SDS011;10238;49.556;10.956;2023-03-21T15:42:37;3.92;;;2.38;;
20154;SDS011;10238;49.556;10.956;2023-03-21T15:45:26;2.58;;;2.38;;
20154;SDS011;10238;49.556;10.956;2023-03-21T15:48:14;2.95;;;2.70;;
20154;SDS011;10238;49.556;10.956;2023-03-21T15:51:10;3.38;;;2.65;;
20154;SDS011;10238;49.556;10.956;2023-03-21T15:54:07;4.70;;;2.15;;
20154;SDS011;10238;49.556;10.956;2023-03-21T15:57:03;2.83;;;2.10;;
20154;SDS011;10238;49.556;10.956;2023-03-21T16:00:08;3.08;;;1.98;;
20154;SDS011;10238;49.556;10.956;2023-03-21T16:03:06;3.80;;;1.90;;
20154;SDS011;10238;49.556;10.956;2023-03-21T16:06:03;3.30;;;2.53;;
20154;SDS011;10238;49.556;10.956;2023-03-21T16:09:02;3.25;;;1.70;;
20154;SDS011;10238;49.556;10.956;2023-03-21T16:11:56;2.10;;;1.90;;
20154;SDS011;10238;49.556;10.956;2023-03-21T16:14:46;2.10;;;1.90;;
20154;SDS011;10238;49.556;10.956;2023-03-21T16:17:34;2.55;;;2.35;;
20154;SDS011;10238;49.556;10.956;2023-03-21T16:20:23;6.90;;;6.40;;
20154;SDS011;10238;49.556;10.956;2023-03-21T16:23:13;7.53;;;6.93;;
20154;SDS011;10238;49.556;10.956;2023-03-21T16:26:02;7.35;;;6.80;;
20154;SDS011;10238;49.556;10.956;2023-03-21T16:28:53;4.22;;;3.03;;
20154;SDS011;10238;49.556;10.956;2023-03-21T16:31:43;3.78;;;2.60;;
20154;SDS011;10238;49.556;10.956;2023-03-21T16:34:33;8.60;;;8.00;;
20154;SDS011;10238;49.556;10.956;2023-03-21T16:37:26;17.20;;;16.30;;
20154;SDS011;10238;49.556;10.956;2023-03-21T16:40:16;20.10;;;19.20;;
20154;SDS011;10238;49.556;10.956;2023-03-21T16:43:12;5.65;;;5.25;;
20154;SDS011;10238;49.556;10.956;2023-03-21T16:45:59;8.30;;;7.80;;
20154;SDS011;10238;49.556;10.956;2023-03-21T16:48:49;9.18;;;8.68;;
20154;SDS011;10238;49.556;10.956;2023-03-21T16:51:39;7.57;;;7.18;;
20154;SDS011;10238;49.556;10.956;2023-03-21T16:54:27;7.65;;;7.15;;
20154;SDS011;10238;49.556;10.956;2023-03-21T16:57:18;4.85;;;4.40;;
20154;SDS011;10238;49.556;10.956;2023-03-21T17:00:13;4.63;;;3.10;;
20154;SDS011;10238;49.556;10.956;2023-03-21T17:03:07;5.40;;;2.70;;
20154;SDS011;10238;49.556;10.956;2023-03-21T17:06:04;4.35;;;3.45;;
20154;SDS011;10238;49.556;10.956;2023-03-21T17:08:53;5.93;;;2.92;;
20154;SDS011;10238;49.556;10.956;2023-03-21T17:11:42;3.50;;;3.05;;
20154;SDS011;10238;49.556;10.956;2023-03-21T17:14:30;4.50;;;4.10;;
20154;SDS011;10238;49.556;10.956;2023-03-21T17:17:19;5.70;;;5.30;;
20154;SDS011;10238;49.556;10.956;2023-03-21T17:20:17;3.40;;;2.88;;